Aviation Digital Data Service (ADDS)

Output produced by METARs form (1939 UTC 19 August 2019)
found at http://www.aviationweather.gov/metar/data/
 
Forecast for: UTDD (DUSHANBE , TJ)
Text: TAF UTDD 191800Z 1919/2007 VRB02MPS 6000 FEW066 SCT130
Forecast period: 1900 UTC 19 August 2019 to 0700 UTC 20 August 2019
Forecast type: FROM: standard forecast or significant change
Winds: variable direction winds at 5 MPH (4 knots; 2.1 m/s)
Visibility: 4 miles (6 km)
Ceiling: at least 12,000 feet AGL
Clouds: few clouds at 6600 feet AGL
scattered clouds at 13000 feet AGL
Weather: no significant weather forecast for this period